createdAt,value
2022-08-18T00:01:16.787Z,57.50
2022-08-18T00:06:22.143Z,58.00
2022-08-18T00:11:25.520Z,57.10
2022-08-18T00:16:30.176Z,57.50
2022-08-18T00:21:34.515Z,63.80
2022-08-18T00:26:37.779Z,69.70
2022-08-18T00:31:42.519Z,73.80
2022-08-18T00:36:46.243Z,75.30
2022-08-18T00:41:49.585Z,76.90
2022-08-18T00:46:54.221Z,77.90
2022-08-18T00:51:59.320Z,78.50
2022-08-18T00:57:05.913Z,79.70
2022-08-18T01:02:16.074Z,81.90
2022-08-18T01:07:25.677Z,84.40
2022-08-18T01:12:45.977Z,89.20
2022-08-18T01:18:08.879Z,92.90
2022-08-18T01:23:17.016Z,95.00
2022-08-18T01:28:23.816Z,97.30
2022-08-18T01:33:32.535Z,99.90
2022-08-18T01:38:38.020Z,99.90
2022-08-18T01:43:41.657Z,99.90
2022-08-18T01:48:45.100Z,99.90
2022-08-18T01:53:49.769Z,99.90
2022-08-18T01:58:55.240Z,99.90
2022-08-18T02:04:30.914Z,99.90
2022-08-18T02:09:26.337Z,99.90
2022-08-18T02:14:31.408Z,99.90
2022-08-18T02:19:35.672Z,99.90
2022-08-18T02:24:40.482Z,99.90
2022-08-18T02:29:44.167Z,99.90
2022-08-18T02:34:47.601Z,99.90
2022-08-18T02:39:52.329Z,99.90
2022-08-18T02:44:55.637Z,99.90
2022-08-18T02:49:58.999Z,99.90
2022-08-18T02:55:04.488Z,99.90
2022-08-18T03:00:11.729Z,99.90
2022-08-18T03:05:17.215Z,99.90
2022-08-18T03:10:31.551Z,99.90
2022-08-18T03:15:37.289Z,99.90
2022-08-18T03:20:41.337Z,99.90
2022-08-18T03:25:48.470Z,99.90
2022-08-18T03:30:51.773Z,99.90
2022-08-18T03:35:55.214Z,99.90
2022-08-18T03:40:59.938Z,99.90
2022-08-18T03:46:03.657Z,99.90
2022-08-18T03:51:08.695Z,99.90
2022-08-18T03:56:17.703Z,99.90
2022-08-18T04:01:25.714Z,99.90
2022-08-18T04:06:33.445Z,99.90
2022-08-18T04:11:39.039Z,99.90
2022-08-18T04:16:43.228Z,99.90
2022-08-18T04:21:46.938Z,99.90
2022-08-18T04:26:51.938Z,99.90
2022-08-18T04:31:56.210Z,99.90
2022-08-18T04:36:59.567Z,99.90
2022-08-18T04:42:05.882Z,99.90
2022-08-18T04:47:10.237Z,99.90
2022-08-18T04:52:40.575Z,99.90
2022-08-18T04:57:46.277Z,99.90
2022-08-18T05:02:49.646Z,99.90
2022-08-18T05:07:53.165Z,99.90
2022-08-18T05:12:58.722Z,99.90
2022-08-18T05:18:02.970Z,99.90
2022-08-18T05:23:09.493Z,99.90
2022-08-18T05:28:14.691Z,99.90
2022-08-18T05:33:18.288Z,99.90
2022-08-18T05:38:35.636Z,99.90
2022-08-18T05:43:41.967Z,99.90
2022-08-18T05:48:55.617Z,99.90
2022-08-18T05:54:17.415Z,99.90
2022-08-18T05:59:26.453Z,99.90
2022-08-18T06:04:43.175Z,99.90
2022-08-18T06:09:52.571Z,99.90
2022-08-18T06:15:06.288Z,99.90
2022-08-18T06:20:16.095Z,99.90
2022-08-18T06:25:26.822Z,99.90
2022-08-18T06:30:46.911Z,99.90
2022-08-18T06:35:53.316Z,99.90
2022-08-18T06:41:04.069Z,99.90
2022-08-18T06:46:19.545Z,99.90
2022-08-18T06:51:24.694Z,99.90
2022-08-18T06:56:37.426Z,99.90
2022-08-18T07:01:42.303Z,99.90
2022-08-18T07:06:45.602Z,99.90
2022-08-18T07:12:04.912Z,99.90
2022-08-18T07:17:11.876Z,99.90
2022-08-18T07:22:17.968Z,99.90
2022-08-18T07:27:24.288Z,99.90
2022-08-18T07:32:34.516Z,99.90
2022-08-18T07:37:44.619Z,99.90
2022-08-18T07:43:01.830Z,99.90
2022-08-18T07:48:36.943Z,99.90
2022-08-18T07:53:54.807Z,99.90
2022-08-18T07:59:05.997Z,99.90
2022-08-18T08:04:25.259Z,99.90
2022-08-18T08:09:37.248Z,99.90
2022-08-18T08:14:44.015Z,99.90
2022-08-18T08:20:08.638Z,98.40
2022-08-18T08:25:42.683Z,95.40
2022-08-18T08:30:52.342Z,94.50
2022-08-18T08:36:06.876Z,94.30
2022-08-18T08:41:14.595Z,93.00
2022-08-18T08:46:21.850Z,92.60
2022-08-18T08:51:37.849Z,91.80
2022-08-18T08:56:47.808Z,87.20
2022-08-18T09:02:01.013Z,88.30
2022-08-18T09:07:29.474Z,82.30
2022-08-18T09:13:00.539Z,79.90
2022-08-18T09:18:31.270Z,76.90
2022-08-18T09:23:42.299Z,75.20
2022-08-18T09:28:57.725Z,73.90
2022-08-18T09:34:23.192Z,76.80
2022-08-18T09:39:58.792Z,75.30
2022-08-18T09:45:09.840Z,74.50
2022-08-18T09:50:38.877Z,74.70
2022-08-18T09:56:01.665Z,76.50
2022-08-18T10:01:36.512Z,75.70
2022-08-18T10:06:42.917Z,74.50
2022-08-18T10:12:15.840Z,75.40
2022-08-18T10:17:36.056Z,71.70
2022-08-18T10:22:43.529Z,68.50
2022-08-18T10:27:53.200Z,64.00
2022-08-18T10:32:56.877Z,62.90
2022-08-18T10:38:01.966Z,62.90
2022-08-18T10:43:46.215Z,65.70
2022-08-18T10:48:42.386Z,60.90
2022-08-18T10:53:52.134Z,57.00
2022-08-18T10:59:16.359Z,58.20
2022-08-18T11:04:34.760Z,53.30
2022-08-18T11:09:50.894Z,46.10
2022-08-18T11:15:22.806Z,44.60
2022-08-18T11:20:31.966Z,39.70
2022-08-18T11:25:38.485Z,44.80
2022-08-18T11:30:46.191Z,41.30
2022-08-18T11:35:52.882Z,43.80
2022-08-18T11:41:13.554Z,41.70
2022-08-18T11:52:03.339Z,46.80
2022-08-18T11:57:32.503Z,50.50
2022-08-18T12:02:38.866Z,39.50
2022-08-18T12:07:51.086Z,40.50
2022-08-18T12:13:01.456Z,43.10
2022-08-18T12:18:06.468Z,37.60
2022-08-18T12:23:09.810Z,37.30
2022-08-18T12:28:13.411Z,38.60
2022-08-18T12:33:18.833Z,43.00
2022-08-18T12:38:29.309Z,46.10
2022-08-18T12:43:32.831Z,46.20
2022-08-18T12:48:40.300Z,43.30
2022-08-18T12:59:09.637Z,36.40
2022-08-18T13:04:15.630Z,36.70
2022-08-18T13:09:35.073Z,38.10
2022-08-18T13:14:46.155Z,36.50
2022-08-18T13:19:51.141Z,32.60
2022-08-18T13:24:59.042Z,32.80
2022-08-18T13:30:29.590Z,34.80
2022-08-18T13:35:35.274Z,38.20
2022-08-18T13:40:47.090Z,39.00
2022-08-18T13:45:52.869Z,38.20
2022-08-18T13:51:01.840Z,39.30
2022-08-18T13:56:05.693Z,40.20
2022-08-18T14:01:41.888Z,41.80
2022-08-18T14:06:34.900Z,43.90
2022-08-18T14:11:41.760Z,45.80
2022-08-18T14:16:45.239Z,45.40
2022-08-18T14:22:11.248Z,44.20
2022-08-18T14:27:15.440Z,44.20
2022-08-18T14:32:29.568Z,43.60
2022-08-18T14:37:34.756Z,45.00
2022-08-18T14:42:41.859Z,44.00
2022-08-18T14:47:58.267Z,45.20
2022-08-18T14:53:03.966Z,46.30
2022-08-18T14:58:07.918Z,46.10
2022-08-18T15:03:11.859Z,45.70
2022-08-18T15:13:26.342Z,47.90
2022-08-18T15:18:29.917Z,48.90
2022-08-18T15:23:57.376Z,48.90
2022-08-18T15:29:01.674Z,49.40
2022-08-18T15:34:12.701Z,49.50
2022-08-18T15:39:17.816Z,48.30
2022-08-18T15:44:23.363Z,47.40
2022-08-18T15:49:26.801Z,48.60
2022-08-18T15:54:31.762Z,47.60
2022-08-18T15:59:40.180Z,49.70
2022-08-18T16:04:45.081Z,51.20
2022-08-18T16:09:50.074Z,50.50
2022-08-18T16:14:54.661Z,52.40
2022-08-18T16:19:57.966Z,51.20
2022-08-18T16:25:05.417Z,52.90
2022-08-18T16:30:10.609Z,53.60
2022-08-18T16:35:14.173Z,54.00
2022-08-18T16:40:20.658Z,54.70
2022-08-18T16:45:24.250Z,54.90
2022-08-18T16:50:28.166Z,54.80
2022-08-18T16:55:34.295Z,55.50
2022-08-18T17:00:55.542Z,56.20
2022-08-18T17:06:03.381Z,56.10
2022-08-18T17:11:10.552Z,56.60
2022-08-18T17:16:14.169Z,56.40
2022-08-18T17:21:19.098Z,56.60
2022-08-18T17:26:31.667Z,56.70
2022-08-18T17:31:36.225Z,57.50
2022-08-18T17:36:52.823Z,55.50
2022-08-18T17:42:15.502Z,57.90
2022-08-18T17:47:24.152Z,58.20
2022-08-18T17:52:31.737Z,58.70
2022-08-18T17:57:43.028Z,59.30
2022-08-18T18:02:47.905Z,59.60
2022-08-18T18:07:57.920Z,59.90
2022-08-18T18:13:12.946Z,60.00
2022-08-18T18:18:22.753Z,60.40
2022-08-18T18:23:32.135Z,60.80
2022-08-18T18:28:37.681Z,61.50
2022-08-18T18:33:41.123Z,62.60
2022-08-18T18:38:49.089Z,62.90
2022-08-18T18:44:07.730Z,63.20
2022-08-18T18:49:19.421Z,64.10
2022-08-18T18:54:41.190Z,64.20
2022-08-18T19:05:14.355Z,64.50
2022-08-18T19:10:24.257Z,65.00
2022-08-18T19:15:33.373Z,65.00
2022-08-18T19:20:43.413Z,65.20
2022-08-18T19:26:12.111Z,66.00
2022-08-18T19:31:23.187Z,67.00
2022-08-18T19:36:36.176Z,68.00
2022-08-18T19:41:47.993Z,68.50
2022-08-18T19:46:56.058Z,71.30
2022-08-18T19:52:05.366Z,79.30
2022-08-18T19:57:47.028Z,85.40
2022-08-18T20:03:20.402Z,90.80
2022-08-18T20:08:48.349Z,93.80
2022-08-18T20:13:56.911Z,95.80
2022-08-18T20:19:02.652Z,96.10
2022-08-18T20:24:40.448Z,99.90
2022-08-18T20:29:47.492Z,99.90
2022-08-18T20:34:52.746Z,99.90
2022-08-18T20:39:56.886Z,99.90
2022-08-18T20:45:07.676Z,99.90
2022-08-18T20:50:37.054Z,99.90
2022-08-18T20:56:02.367Z,99.90
2022-08-18T21:01:16.991Z,99.90
2022-08-18T21:06:23.822Z,99.90
2022-08-18T21:11:32.166Z,99.90
2022-08-18T21:16:39.667Z,99.90
2022-08-18T21:21:48.948Z,99.90
2022-08-18T21:26:57.658Z,99.90
2022-08-18T21:32:12.056Z,99.90
2022-08-18T21:37:18.239Z,99.90
2022-08-18T21:42:26.150Z,99.90
2022-08-18T21:47:32.614Z,99.90
2022-08-18T21:52:39.690Z,99.90
2022-08-18T21:57:59.672Z,99.90
2022-08-18T22:03:20.641Z,99.90
2022-08-18T22:08:26.281Z,99.90
2022-08-18T22:13:47.754Z,99.90
2022-08-18T22:18:50.923Z,99.90
2022-08-18T22:24:13.008Z,99.90
2022-08-18T22:29:27.111Z,99.90
2022-08-18T22:34:34.408Z,99.90
2022-08-18T22:39:42.308Z,99.90
2022-08-18T22:44:46.219Z,99.90
2022-08-18T22:49:49.670Z,99.90
2022-08-18T22:54:54.654Z,99.90
2022-08-18T22:59:58.020Z,99.90
2022-08-18T23:05:03.113Z,99.90
2022-08-18T23:10:14.010Z,99.90
2022-08-18T23:15:18.938Z,99.90
2022-08-18T23:20:22.616Z,99.90
2022-08-18T23:25:32.629Z,99.90
2022-08-18T23:30:35.975Z,99.90
2022-08-18T23:35:39.749Z,99.90
2022-08-18T23:40:47.082Z,99.90
2022-08-18T23:45:51.410Z,99.90
2022-08-18T23:50:54.514Z,99.90
2022-08-18T23:55:59.166Z,99.90
